createdAt,value
2018-11-20T00:00:48.021Z,31.50
2018-11-20T00:03:35.228Z,32.30
2018-11-20T00:06:45.491Z,31.60
2018-11-20T00:09:46.515Z,31.50
2018-11-20T00:12:43.172Z,31.50
2018-11-20T00:15:35.928Z,31.50
2018-11-20T00:18:23.383Z,31.50
2018-11-20T00:21:18.766Z,31.40
2018-11-20T00:24:14.732Z,31.50
2018-11-20T00:27:16.484Z,31.50
2018-11-20T00:30:15.386Z,31.40
2018-11-20T00:33:04.083Z,32.10
2018-11-20T00:35:59.346Z,31.40
2018-11-20T00:38:55.364Z,31.40
2018-11-20T00:41:41.544Z,31.30
2018-11-20T00:44:45.953Z,31.30
2018-11-20T00:47:44.885Z,31.30
2018-11-20T00:50:43.399Z,31.40
2018-11-20T00:53:37.032Z,31.30
2018-11-20T00:57:11.225Z,31.50
2018-11-20T01:00:06.810Z,31.30
2018-11-20T01:03:09.610Z,31.40
2018-11-20T01:06:05.732Z,32.10
2018-11-20T01:08:49.953Z,31.40
2018-11-20T01:11:57.742Z,31.40
2018-11-20T01:14:58.814Z,31.40
2018-11-20T01:17:49.988Z,31.40
2018-11-20T01:20:56.991Z,31.30
2018-11-20T01:23:51.668Z,31.50
2018-11-20T01:26:49.967Z,31.40
2018-11-20T01:29:40.608Z,31.40
2018-11-20T01:32:54.719Z,30.80
2018-11-20T01:35:49.073Z,31.50
2018-11-20T01:38:44.212Z,31.40
2018-11-20T01:41:54.766Z,31.40
2018-11-20T01:44:56.784Z,31.40
2018-11-20T01:48:01.356Z,31.50
2018-11-20T01:51:03.040Z,31.40
2018-11-20T01:53:58.305Z,31.40
2018-11-20T01:56:52.929Z,31.40
2018-11-20T01:59:46.870Z,31.30
2018-11-20T02:02:55.018Z,31.40
2018-11-20T02:05:49.203Z,31.40
2018-11-20T02:08:47.782Z,31.40
2018-11-20T02:11:49.590Z,31.30
2018-11-20T02:14:51.729Z,31.40
2018-11-20T02:18:05.871Z,31.30
2018-11-20T02:21:11.118Z,31.40
2018-11-20T02:24:21.574Z,31.40
2018-11-20T02:27:22.798Z,31.30
2018-11-20T02:30:26.731Z,31.20
2018-11-20T02:33:37.417Z,31.30
2018-11-20T02:36:27.961Z,31.30
2018-11-20T02:39:37.930Z,31.40
2018-11-20T02:42:40.235Z,31.30
2018-11-20T02:45:35.453Z,31.20
2018-11-20T02:48:31.546Z,31.30
2018-11-20T02:51:25.281Z,31.20
2018-11-20T02:54:30.690Z,31.20
2018-11-20T02:57:24.378Z,31.40
2018-11-20T03:00:22.961Z,31.30
2018-11-20T03:03:13.970Z,31.30
2018-11-20T03:06:08.009Z,31.30
2018-11-20T03:09:01.628Z,31.20
2018-11-20T03:12:13.011Z,31.20
2018-11-20T03:15:07.388Z,31.20
2018-11-20T03:18:11.940Z,31.40
2018-11-20T03:21:05.787Z,31.40
2018-11-20T03:24:01.519Z,31.90
2018-11-20T03:26:59.533Z,31.30
2018-11-20T03:30:25.028Z,31.30
2018-11-20T03:33:15.091Z,31.20
2018-11-20T03:36:29.636Z,31.30
2018-11-20T03:39:29.928Z,31.30
2018-11-20T03:42:24.375Z,31.20
2018-11-20T03:45:18.648Z,31.30
2018-11-20T03:48:13.147Z,31.20
2018-11-20T03:51:21.866Z,31.30
2018-11-20T03:54:32.474Z,31.30
2018-11-20T03:57:27.413Z,31.30
2018-11-20T04:00:25.173Z,31.30
2018-11-20T04:03:30.447Z,31.30
2018-11-20T04:06:24.653Z,31.30
2018-11-20T04:09:20.336Z,31.20
2018-11-20T04:12:31.206Z,31.30
2018-11-20T04:15:39.238Z,31.20
2018-11-20T04:18:40.023Z,31.20
2018-11-20T04:21:34.155Z,31.20
2018-11-20T04:24:32.517Z,31.30
2018-11-20T04:27:28.367Z,31.20
2018-11-20T04:30:56.529Z,31.20
2018-11-20T04:33:59.841Z,31.20
2018-11-20T04:36:59.247Z,31.20
2018-11-20T04:39:57.573Z,31.10
2018-11-20T04:42:59.383Z,31.20
2018-11-20T04:45:54.486Z,31.10
2018-11-20T04:48:44.378Z,31.10
2018-11-20T04:51:31.042Z,31.10
2018-11-20T04:54:24.465Z,31.20
2018-11-20T04:57:28.745Z,31.70
2018-11-20T05:00:38.008Z,31.20
2018-11-20T05:03:45.749Z,31.10
2018-11-20T05:06:43.806Z,31.10
2018-11-20T05:09:45.198Z,31.20
2018-11-20T05:12:43.436Z,31.20
2018-11-20T05:15:51.704Z,31.20
2018-11-20T05:18:50.188Z,31.10
2018-11-20T05:21:48.215Z,31.10
2018-11-20T05:24:42.251Z,31.20
2018-11-20T05:27:46.733Z,31.20
2018-11-20T05:30:46.577Z,31.20
2018-11-20T05:33:41.366Z,31.30
2018-11-20T05:36:28.970Z,31.30
2018-11-20T05:39:26.544Z,31.40
2018-11-20T05:42:28.058Z,31.30
2018-11-20T05:45:32.273Z,31.40
2018-11-20T05:48:23.322Z,31.30
2018-11-20T05:51:37.101Z,31.30
2018-11-20T05:54:48.047Z,31.30
2018-11-20T05:57:35.091Z,31.40
2018-11-20T06:00:29.891Z,31.40
2018-11-20T06:03:27.547Z,31.40
2018-11-20T06:06:40.903Z,31.40
2018-11-20T06:09:35.294Z,31.40
2018-11-20T06:12:30.152Z,31.50
2018-11-20T06:15:24.595Z,31.40
2018-11-20T06:18:28.365Z,32.00
2018-11-20T06:21:42.926Z,32.30
2018-11-20T06:24:47.397Z,32.50
2018-11-20T06:27:51.717Z,32.50
2018-11-20T06:30:46.072Z,32.60
2018-11-20T06:33:56.597Z,32.70
2018-11-20T06:37:10.370Z,32.80
2018-11-20T06:40:09.717Z,33.00
2018-11-20T06:43:14.303Z,32.90
2018-11-20T06:46:10.398Z,33.00
2018-11-20T06:49:05.827Z,25.10
2018-11-20T06:51:59.472Z,27.60
2018-11-20T06:55:07.059Z,29.30
2018-11-20T06:58:01.269Z,29.70
2018-11-20T07:01:15.416Z,30.10
2018-11-20T07:04:09.276Z,30.10
2018-11-20T07:07:03.659Z,30.50
2018-11-20T07:10:08.241Z,30.70
2018-11-20T07:13:03.043Z,30.70
2018-11-20T07:15:57.242Z,31.00
2018-11-20T07:18:51.354Z,31.30
2018-11-20T07:21:51.929Z,31.40
2018-11-20T07:24:51.585Z,31.40
2018-11-20T07:27:53.152Z,31.50
2018-11-20T07:30:49.295Z,31.50
2018-11-20T07:33:47.431Z,31.60
2018-11-20T07:36:46.437Z,31.60
2018-11-20T07:39:51.152Z,31.50
2018-11-20T07:42:55.586Z,31.50
2018-11-20T07:46:02.689Z,31.50
2018-11-20T07:49:03.591Z,31.60
2018-11-20T07:52:02.719Z,31.70
2018-11-20T07:54:55.228Z,31.70
2018-11-20T07:57:51.539Z,31.60
2018-11-20T08:00:46.763Z,31.60
2018-11-20T08:03:35.560Z,31.70
2018-11-20T08:06:30.036Z,31.70
2018-11-20T08:09:37.253Z,31.70
2018-11-20T08:12:23.817Z,31.80
2018-11-20T08:15:25.519Z,31.80
2018-11-20T08:18:11.461Z,32.40
2018-11-20T08:20:54.700Z,31.70
2018-11-20T08:23:48.742Z,31.70
2018-11-20T08:26:47.397Z,31.70
2018-11-20T08:29:41.482Z,31.70
2018-11-20T08:32:51.842Z,31.70
2018-11-20T08:35:42.354Z,31.00
2018-11-20T08:38:36.178Z,31.40
2018-11-20T08:41:44.490Z,31.30
2018-11-20T08:44:39.179Z,31.70
2018-11-20T08:47:46.798Z,31.80
2018-11-20T08:51:00.594Z,31.90
2018-11-20T08:54:04.339Z,31.80
2018-11-20T08:57:02.602Z,31.90
2018-11-20T08:59:52.948Z,31.90
2018-11-20T09:03:01.041Z,31.90
2018-11-20T09:05:54.635Z,32.00
2018-11-20T09:08:44.775Z,32.10
2018-11-20T09:11:42.894Z,32.20
2018-11-20T09:14:37.751Z,32.00
2018-11-20T09:17:41.950Z,32.10
2018-11-20T09:20:43.661Z,32.00
2018-11-20T09:23:37.554Z,32.00
2018-11-20T09:26:33.025Z,31.90
2018-11-20T09:29:27.957Z,31.90
2018-11-20T09:32:12.995Z,31.90
2018-11-20T09:35:11.115Z,32.00
2018-11-20T09:38:00.021Z,31.90
2018-11-20T09:41:09.521Z,31.80
2018-11-20T09:44:52.944Z,32.40
2018-11-20T09:47:48.712Z,32.20
2018-11-20T09:50:47.761Z,31.70
2018-11-20T09:53:42.354Z,31.70
2018-11-20T09:56:30.364Z,31.80
2018-11-20T09:59:25.414Z,31.70
2018-11-20T10:02:21.074Z,31.70
2018-11-20T10:05:31.514Z,31.70
2018-11-20T10:08:27.511Z,32.40
2018-11-20T10:11:29.870Z,31.70
2018-11-20T10:14:24.197Z,31.60
2018-11-20T10:17:37.237Z,31.80
2018-11-20T10:20:40.347Z,31.80
2018-11-20T10:23:36.511Z,31.70
2018-11-20T10:26:30.995Z,31.70
2018-11-20T10:29:47.694Z,31.70
2018-11-20T10:32:57.222Z,31.80
2018-11-20T10:35:51.529Z,31.90
2018-11-20T10:38:47.200Z,31.80
2018-11-20T10:41:41.669Z,31.90
2018-11-20T10:44:52.165Z,31.90
2018-11-20T10:47:53.701Z,31.80
2018-11-20T10:50:48.185Z,31.80
2018-11-20T10:53:48.969Z,31.90
2018-11-20T10:56:35.788Z,31.80
2018-11-20T10:59:31.141Z,31.80
2018-11-20T11:02:25.274Z,31.80
2018-11-20T11:05:18.822Z,31.80
2018-11-20T11:08:12.123Z,31.90
2018-11-20T11:11:04.776Z,31.70
2018-11-20T11:13:57.005Z,31.80
2018-11-20T11:16:52.251Z,31.80
2018-11-20T11:19:46.871Z,31.80
2018-11-20T11:22:41.030Z,31.70
2018-11-20T11:25:43.069Z,31.80
2018-11-20T11:28:57.137Z,31.80
2018-11-20T11:31:53.466Z,31.80
2018-11-20T11:35:04.141Z,31.80
2018-11-20T11:38:02.539Z,31.70
2018-11-20T11:41:04.004Z,31.60
2018-11-20T11:44:08.334Z,31.70
2018-11-20T11:47:21.941Z,31.70
2018-11-20T11:50:15.792Z,31.60
2018-11-20T11:53:09.275Z,31.60
2018-11-20T11:56:03.233Z,31.70
2018-11-20T11:58:49.049Z,31.60
2018-11-20T12:04:42.428Z,31.70
2018-11-20T12:07:28.169Z,31.60
2018-11-20T12:10:19.723Z,31.60
2018-11-20T12:16:12.184Z,31.50
2018-11-20T12:19:10.441Z,31.50
2018-11-20T12:22:13.671Z,31.50
2018-11-20T12:25:07.262Z,31.50
2018-11-20T12:27:58.835Z,31.50
2018-11-20T12:30:58.852Z,31.50
2018-11-20T12:34:03.967Z,31.50
2018-11-20T12:36:48.848Z,31.50
2018-11-20T12:39:48.412Z,31.60
2018-11-20T12:42:43.913Z,31.40
2018-11-20T12:45:57.726Z,31.50
2018-11-20T12:48:51.335Z,31.50
2018-11-20T12:51:59.434Z,31.50
2018-11-20T12:55:00.583Z,31.50
2018-11-20T12:57:54.296Z,31.50
2018-11-20T13:00:40.504Z,31.50
2018-11-20T13:03:37.000Z,31.50
2018-11-20T13:06:31.227Z,31.40
2018-11-20T13:09:41.796Z,31.40
2018-11-20T13:12:49.604Z,31.50
2018-11-20T13:15:43.343Z,31.50
2018-11-20T13:18:39.332Z,31.40
2018-11-20T13:21:40.669Z,31.50
2018-11-20T13:24:29.542Z,31.30
2018-11-20T13:27:33.361Z,31.40
2018-11-20T13:30:25.455Z,31.30
2018-11-20T13:33:36.308Z,31.40
2018-11-20T13:36:30.003Z,31.50
2018-11-20T13:39:46.084Z,31.40
2018-11-20T13:42:32.479Z,31.40
2018-11-20T13:45:40.664Z,31.50
2018-11-20T13:48:35.865Z,31.40
2018-11-20T13:51:43.249Z,31.40
2018-11-20T13:54:38.635Z,31.40
2018-11-20T13:57:32.626Z,31.40
2018-11-20T14:00:26.687Z,31.40
2018-11-20T14:03:22.364Z,31.40
2018-11-20T14:06:18.114Z,31.40
2018-11-20T14:09:29.423Z,31.50
2018-11-20T14:12:40.818Z,31.50
2018-11-20T14:15:32.885Z,31.40
2018-11-20T14:18:22.519Z,31.50
2018-11-20T14:21:20.826Z,31.40
2018-11-20T14:24:14.905Z,31.30
2018-11-20T14:27:07.180Z,31.40
2018-11-20T14:30:05.122Z,31.40
2018-11-20T14:32:59.318Z,31.40
2018-11-20T14:36:03.690Z,31.30
2018-11-20T14:38:57.760Z,31.40
2018-11-20T14:41:51.465Z,31.40
2018-11-20T14:44:49.730Z,31.50
2018-11-20T14:47:45.450Z,32.20
2018-11-20T14:50:40.498Z,31.40
2018-11-20T14:53:39.355Z,31.40
2018-11-20T14:56:53.166Z,31.40
2018-11-20T14:59:46.873Z,31.60
2018-11-20T15:02:38.229Z,32.30
2018-11-20T15:05:35.726Z,31.90
2018-11-20T15:08:30.276Z,32.00
2018-11-20T15:11:19.197Z,32.00
2018-11-20T15:14:27.347Z,32.00
2018-11-20T15:17:38.192Z,32.00
2018-11-20T15:20:33.017Z,32.00
2018-11-20T15:23:35.132Z,32.00
2018-11-20T15:26:30.488Z,32.00
2018-11-20T15:29:15.457Z,32.00
2018-11-20T15:32:11.102Z,32.00
2018-11-20T15:34:54.152Z,32.00
2018-11-20T15:37:48.344Z,32.10
2018-11-20T15:40:44.265Z,32.00
2018-11-20T15:43:49.351Z,32.00
2018-11-20T15:46:44.914Z,32.00
2018-11-20T15:49:44.536Z,32.00
2018-11-20T15:52:38.639Z,32.00
2018-11-20T15:55:43.592Z,32.10
2018-11-20T15:58:37.787Z,32.00
2018-11-20T16:01:40.762Z,32.00
2018-11-20T16:04:44.756Z,32.10
2018-11-20T16:07:32.530Z,32.10
2018-11-20T16:10:37.120Z,32.10
2018-11-20T16:13:36.570Z,32.00
2018-11-20T16:16:20.364Z,32.10
2018-11-20T16:19:14.463Z,32.00
2018-11-20T16:22:13.344Z,31.20
2018-11-20T16:25:08.403Z,31.30
2018-11-20T16:28:04.060Z,31.40
2018-11-20T16:30:54.622Z,31.40
2018-11-20T16:34:02.742Z,31.60
2018-11-20T16:36:56.829Z,31.70
2018-11-20T16:39:50.942Z,31.60
2018-11-20T16:42:46.251Z,31.60
2018-11-20T16:45:47.366Z,32.00
2018-11-20T16:48:45.574Z,32.10
2018-11-20T16:51:46.509Z,32.10
2018-11-20T16:55:00.147Z,32.10
2018-11-20T16:58:10.555Z,32.20
2018-11-20T17:01:02.070Z,32.30
2018-11-20T17:03:56.952Z,32.40
2018-11-20T17:07:01.178Z,32.20
2018-11-20T17:09:55.832Z,32.20
2018-11-20T17:12:57.604Z,32.10
2018-11-20T17:15:51.912Z,32.00
2018-11-20T17:18:53.166Z,32.00
2018-11-20T17:21:58.254Z,31.90
2018-11-20T17:25:06.764Z,31.90
2018-11-20T17:28:07.911Z,31.80
2018-11-20T17:31:10.313Z,31.90
2018-11-20T17:34:04.576Z,31.80
2018-11-20T17:37:08.946Z,31.70
2018-11-20T17:40:12.561Z,31.90
2018-11-20T17:43:14.147Z,31.90
2018-11-20T17:46:11.849Z,31.90
2018-11-20T17:49:17.526Z,31.90
2018-11-20T17:52:11.506Z,31.80
2018-11-20T17:55:24.843Z,31.70
2018-11-20T17:58:25.141Z,32.20
2018-11-20T18:01:17.027Z,31.60
2018-11-20T18:04:11.035Z,31.70
2018-11-20T18:07:06.811Z,31.60
2018-11-20T18:10:20.493Z,31.70
2018-11-20T18:13:11.171Z,31.60
2018-11-20T18:16:03.051Z,31.70
2018-11-20T18:18:57.786Z,31.70
2018-11-20T18:21:51.407Z,31.70
2018-11-20T18:24:56.929Z,31.70
2018-11-20T18:27:52.150Z,31.90
2018-11-20T18:30:47.517Z,31.80
2018-11-20T18:33:48.325Z,31.80
2018-11-20T18:36:42.812Z,31.80
2018-11-20T18:39:52.178Z,31.80
2018-11-20T18:42:48.405Z,31.70
2018-11-20T18:45:50.452Z,31.80
2018-11-20T18:48:44.427Z,31.80
2018-11-20T18:51:51.511Z,31.70
2018-11-20T18:54:45.852Z,31.80
2018-11-20T18:57:39.958Z,31.80
2018-11-20T19:00:54.173Z,31.80
2018-11-20T19:03:43.927Z,31.90
2018-11-20T19:06:36.813Z,31.90
2018-11-20T19:09:31.244Z,32.00
2018-11-20T19:12:26.425Z,32.10
2018-11-20T19:15:21.364Z,32.20
2018-11-20T19:18:16.285Z,32.20
2018-11-20T19:21:21.176Z,32.10
2018-11-20T19:24:35.368Z,31.90
2018-11-20T19:27:29.057Z,31.90
2018-11-20T19:30:25.546Z,32.20
2018-11-20T19:33:35.914Z,32.30
2018-11-20T19:36:49.755Z,32.50
2018-11-20T19:39:59.645Z,32.80
2018-11-20T19:42:56.102Z,32.80
2018-11-20T19:45:50.362Z,33.60
2018-11-20T19:48:54.278Z,33.00
2018-11-20T19:51:48.972Z,32.90
2018-11-20T19:54:43.299Z,32.80
2018-11-20T19:57:38.780Z,32.90
2018-11-20T20:00:33.111Z,32.80
2018-11-20T20:03:25.068Z,32.80
2018-11-20T20:06:19.302Z,32.70
2018-11-20T20:09:26.773Z,32.60
2018-11-20T20:12:34.886Z,32.50
2018-11-20T20:15:28.719Z,32.40
2018-11-20T20:18:23.402Z,32.30
2018-11-20T20:21:22.260Z,32.20
2018-11-20T20:24:05.503Z,32.20
2018-11-20T20:26:58.708Z,32.10
2018-11-20T20:29:55.089Z,32.00
2018-11-20T20:32:59.202Z,31.90
2018-11-20T20:35:57.475Z,31.90
2018-11-20T20:38:52.161Z,31.70
2018-11-20T20:41:46.995Z,31.70
2018-11-20T20:44:41.836Z,31.70
2018-11-20T20:47:39.875Z,32.20
2018-11-20T20:50:34.435Z,31.40
2018-11-20T20:53:28.318Z,31.30
2018-11-20T20:56:22.680Z,31.40
2018-11-20T20:59:23.034Z,31.20
2018-11-20T21:02:29.125Z,31.20
2018-11-20T21:05:26.567Z,31.10
2018-11-20T21:08:15.575Z,31.00
2018-11-20T21:11:09.784Z,30.90
2018-11-20T21:14:04.404Z,31.00
2018-11-20T21:17:08.613Z,30.90
2018-11-20T21:20:19.142Z,30.80
2018-11-20T21:23:29.645Z,30.90
2018-11-20T21:27:23.360Z,30.70
2018-11-20T21:30:30.680Z,30.70
2018-11-20T21:33:24.539Z,30.60
2018-11-20T21:36:25.568Z,30.60
2018-11-20T21:39:18.699Z,30.70
2018-11-20T21:42:11.329Z,30.40
2018-11-20T21:45:22.113Z,30.40
2018-11-20T21:48:11.352Z,30.40
2018-11-20T21:51:15.000Z,30.50
2018-11-20T21:54:02.885Z,30.40
2018-11-20T21:57:03.475Z,30.30
2018-11-20T22:00:14.106Z,30.20
2018-11-20T22:03:07.452Z,30.30
2018-11-20T22:06:01.696Z,30.20
2018-11-20T22:08:52.082Z,30.20
2018-11-20T22:11:46.818Z,30.20
2018-11-20T22:14:50.612Z,30.10
2018-11-20T22:17:43.611Z,30.10
2018-11-20T22:20:38.296Z,30.10
2018-11-20T22:23:37.040Z,30.10
2018-11-20T22:26:41.019Z,30.10
2018-11-20T22:29:26.282Z,30.10
2018-11-20T22:32:21.552Z,30.00
2018-11-20T22:35:15.115Z,30.00
2018-11-20T22:38:22.242Z,30.00
2018-11-20T22:41:20.368Z,30.00
2018-11-20T22:44:25.290Z,30.00
2018-11-20T22:47:29.759Z,29.90
2018-11-20T22:50:31.041Z,29.80
2018-11-20T22:53:31.356Z,29.90
2018-11-20T22:56:29.473Z,29.80
2018-11-20T22:59:39.668Z,29.70
2018-11-20T23:02:47.524Z,29.70
2018-11-20T23:05:41.974Z,29.70
2018-11-20T23:08:18.184Z,29.70
2018-11-20T23:10:53.939Z,29.70
2018-11-20T23:13:29.110Z,29.60
2018-11-20T23:16:04.789Z,29.70
2018-11-20T23:18:39.891Z,29.70
2018-11-20T23:21:15.940Z,29.70
2018-11-20T23:23:51.454Z,29.60
2018-11-20T23:26:27.142Z,30.10
2018-11-20T23:29:02.833Z,29.60
2018-11-20T23:31:39.282Z,29.60
2018-11-20T23:34:15.488Z,29.60
2018-11-20T23:36:50.822Z,29.60
2018-11-20T23:39:26.505Z,29.50
2018-11-20T23:42:02.281Z,29.50
2018-11-20T23:44:38.222Z,29.40
2018-11-20T23:47:13.644Z,29.40
2018-11-20T23:49:48.662Z,29.30
2018-11-20T23:52:24.146Z,29.40
2018-11-20T23:55:00.581Z,29.40
2018-11-20T23:57:36.381Z,29.50
